Аэропорт: Сары-Арка. Караганда

ICAO: UAKK

METAR:
2020-10-23 10:00:00
UAKK 231000Z 28007MPS 9999 BKN046CB 01/M10 Q1016 R23/0///70 NOSIG RMK QFE715/0954
METAR:
2020-10-23 05:00:00
TAF UAKK 230500Z 2306/2406 26005MPS 9999 BKN030 OVC100 TX02/2310Z TNM03/2401Z TEMPO 2306/2316 27012MPS 5000 -SHSNRA BKN020CB BECMG 2316/2318 27004MPS TEMPO 2318/2403 VRB02MPS 3100 BR SCT011